Time;durP1;ratioP1;P1;durP2;ratioP2;P2;SDS_P1;SDS_P2;PMS_P1;PMS_P2;Temp;Humidity;BMP_temperature;BMP_pressure;BME280_temperature;BME280_humidity;BME280_pressure;Samples;Min_cycle;Max_cycle;Signal;HPM_P1;HPM_P2
2022/05/01 00:00:17;;;;;;;3.00;1.40;;;;;;;8.98;83.90;102099.03;4883487;29;20033;-84
2022/05/01 00:02:42;;;;;;;2.60;1.50;;;;;;;8.96;84.51;102095.66;4883452;29;20034;-84
2022/05/01 00:05:08;;;;;;;1.75;1.10;;;;;;;7.43;84.19;101862.56;5099115;23;20000;-84
2022/05/01 00:07:34;;;;;;;1.80;1.30;;;;;;;7.66;84.59;101916.53;4901889;29;20136;-84
2022/05/01 00:09:59;;;;;;;2.00;1.00;;;;;;;8.08;84.95;101965.97;4903552;29;20041;-84
2022/05/01 00:12:26;;;;;;;2.67;0.85;;;;;;;8.62;85.37;102058.84;4886344;29;20026;-85
2022/05/01 00:14:51;;;;;;;2.20;0.90;;;;;;;8.75;85.88;102093.31;5658270;23;20059;-85
2022/05/01 00:17:18;;;;;;;2.15;1.60;;;;;;;8.75;86.20;102096.00;4906573;29;20021;-85
2022/05/01 00:19:43;;;;;;;3.08;0.90;;;;;;;8.68;85.71;102097.63;4906278;29;20027;-85
2022/05/01 00:22:08;;;;;;;1.40;0.70;;;;;;;8.46;85.59;102078.31;4906436;29;20029;-84
2022/05/01 00:27:09;;;;;;;2.08;0.70;;;;;;;7.05;86.79;101867.22;5210365;23;20068;-84
2022/05/01 00:29:35;;;;;;;1.20;0.80;;;;;;;6.72;87.03;101814.28;4905819;29;20089;-84
2022/05/01 00:32:02;;;;;;;3.05;0.80;;;;;;;7.61;87.92;101958.16;4906110;29;20009;-85
2022/05/01 00:39:47;;;;;;;5.45;1.50;;;;;;;8.36;88.71;102077.53;5126147;23;19931;-84
2022/05/01 00:42:12;;;;;;;3.25;2.50;;;;;;;8.44;88.66;102096.41;4904422;29;20052;-85
2022/05/01 00:44:39;;;;;;;3.53;2.78;;;;;;;8.33;89.85;102088.53;4903773;29;20036;-85
2022/05/01 00:47:04;;;;;;;4.13;1.75;;;;;;;8.23;89.66;102077.06;4904632;29;20060;-85
2022/05/01 00:49:30;;;;;;;3.50;1.55;;;;;;;8.34;90.04;102098.28;4903464;29;20092;-85
2022/05/01 00:51:59;;;;;;;4.00;1.83;;;;;;;8.34;90.09;102094.75;4902910;29;20040;-85
2022/05/01 00:54:27;;;;;;;2.88;1.08;;;;;;;8.31;90.30;102097.72;4904758;29;20033;-84
2022/05/01 00:56:54;;;;;;;0.85;0.70;;;;;;;8.23;90.24;102088.63;4904606;29;20040;-85
2022/05/01 00:59:20;;;;;;;1.50;0.90;;;;;;;8.30;90.58;102096.91;4905683;29;20037;-85
2022/05/01 01:01:47;;;;;;;1.70;1.10;;;;;;;8.30;90.81;102093.38;4901758;29;20101;-85
2022/05/01 01:04:13;;;;;;;1.45;0.90;;;;;;;8.22;90.54;102083.44;4888586;29;20033;-85
2022/05/01 01:06:39;;;;;;;2.55;1.00;;;;;;;8.06;90.84;102056.44;4902559;29;20057;-85
2022/05/01 01:09:06;;;;;;;1.13;0.70;;;;;;;8.23;91.33;102085.94;4903890;29;20025;-84
2022/05/01 01:11:32;;;;;;;2.92;0.82;;;;;;;8.22;91.65;102092.31;4902804;29;20058;-83
2022/05/01 01:13:59;;;;;;;1.08;0.70;;;;;;;7.99;91.86;102054.38;4902247;29;20017;-84
2022/05/01 01:16:24;;;;;;;1.77;0.77;;;;;;;8.24;92.52;102089.47;4905336;29;20025;-83
2022/05/01 01:18:50;;;;;;;2.20;0.80;;;;;;;8.27;92.05;102102.56;4904816;29;20046;-84
2022/05/01 01:21:15;;;;;;;1.77;0.95;;;;;;;8.19;91.53;102094.44;4871318;29;20021;-84
2022/05/01 01:23:41;;;;;;;2.28;1.00;;;;;;;8.13;91.20;102095.88;4904716;29;20013;-84
2022/05/01 01:26:08;;;;;;;2.40;1.02;;;;;;;8.10;90.46;102098.88;4903981;29;20443;-84
2022/05/01 01:33:57;;;;;;;;;;;;;;;8.05;86.94;102095.81;4868321;29;20099;-84
2022/05/01 01:36:26;;;;;;;1.58;0.70;;;;;;;6.80;86.68;101889.31;4881231;29;19900;-84
2022/05/01 01:41:28;;;;;;;1.77;0.77;;;;;;;8.02;85.96;102073.84;5462354;23;20073;-84
2022/05/01 01:43:54;;;;;;;1.58;0.85;;;;;;;8.05;86.90;102094.97;4886771;29;20037;-84
2022/05/01 01:46:20;;;;;;;0.80;0.60;;;;;;;7.99;86.90;102083.00;4886231;29;20059;-84
2022/05/01 01:48:46;;;;;;;2.47;0.88;;;;;;;8.00;85.55;102080.16;4886476;29;20022;-84
2022/05/01 01:51:12;;;;;;;4.35;0.77;;;;;;;8.01;85.46;102089.03;4885266;29;20017;-84
2022/05/01 01:56:12;;;;;;;1.58;0.90;;;;;;;7.94;86.22;102088.81;5139143;23;20044;-85
2022/05/01 01:58:40;;;;;;;1.83;0.80;;;;;;;7.79;85.65;102068.03;4905101;29;20013;-84
2022/05/01 02:01:07;;;;;;;3.35;0.85;;;;;;;7.90;85.63;102087.44;4903050;29;20021;-84
2022/05/01 02:03:33;;;;;;;1.35;0.75;;;;;;;7.90;85.61;102089.25;4905036;29;20028;-84
2022/05/01 02:06:00;;;;;;;1.77;0.90;;;;;;;7.89;85.45;102083.06;4903561;29;20031;-83
2022/05/01 02:08:25;;;;;;;1.20;0.90;;;;;;;7.82;84.81;102073.94;4885256;29;20046;-85
2022/05/01 02:13:26;;;;;;;1.20;0.90;;;;;;;6.26;82.55;101832.94;5855771;23;21044;-83
2022/05/01 02:15:52;;;;;;;2.78;1.10;;;;;;;6.63;82.28;101887.41;4902750;29;20086;-84
2022/05/01 02:18:17;;;;;;;2.60;0.90;;;;;;;7.84;81.99;102079.16;4903035;29;20084;-83
2022/05/01 02:23:29;;;;;;;1.33;0.77;;;;;;;7.73;82.00;102074.84;4904019;29;20129;-84
2022/05/01 02:25:54;;;;;;;2.90;0.85;;;;;;;7.67;82.71;102075.44;4903704;29;20069;-84
2022/05/01 02:28:19;;;;;;;2.47;0.80;;;;;;;7.59;82.36;102062.78;4903161;29;20021;-85
2022/05/01 02:33:20;;;;;;;1.63;0.90;;;;;;;5.79;81.79;101791.94;5186880;23;19920;-84
2022/05/01 02:35:46;;;;;;;2.95;0.90;;;;;;;7.50;82.13;102066.34;4883808;29;20013;-85
2022/05/01 02:38:11;;;;;;;3.20;1.20;;;;;;;7.42;81.63;102056.38;4883847;29;20021;-84
2022/05/01 02:40:37;;;;;;;1.88;1.00;;;;;;;7.49;81.35;102070.88;4884659;29;20086;-85
2022/05/01 02:43:04;;;;;;;2.90;0.85;;;;;;;7.47;81.34;102072.84;4884983;29;20041;-85
2022/05/01 02:45:29;;;;;;;1.60;0.90;;;;;;;7.45;81.16;102072.16;4883800;29;20021;-84
2022/05/01 02:50:30;;;;;;;2.55;1.00;;;;;;;7.38;80.14;102056.81;4921645;24;20044;-84
2022/05/01 02:52:55;;;;;;;2.92;1.17;;;;;;;7.39;80.03;102067.38;4901179;29;20013;-86
2022/05/01 02:55:21;;;;;;;2.08;1.00;;;;;;;7.33;79.45;102057.25;4885015;29;20062;-84
2022/05/01 02:57:46;;;;;;;3.25;1.17;;;;;;;7.39;79.25;102071.91;4901669;29;20013;-84
2022/05/01 03:00:16;;;;;;;2.10;1.10;;;;;;;7.15;78.83;102033.13;4901127;29;20016;-84
2022/05/01 03:02:46;;;;;;;1.40;0.90;;;;;;;7.34;78.73;102079.53;4901587;29;20120;-84
2022/05/01 03:05:11;;;;;;;3.03;1.10;;;;;;;7.25;79.35;102074.06;4884483;29;20017;-84
2022/05/01 03:07:37;;;;;;;6.57;1.50;;;;;;;7.20;79.47;102067.47;4900236;29;20033;-84
2022/05/01 03:10:03;;;;;;;3.22;1.23;;;;;;;7.09;79.23;102054.25;4870112;29;20033;-84
2022/05/01 03:12:29;;;;;;;2.90;1.10;;;;;;;7.14;79.25;102065.34;4900855;29;20037;-84
2022/05/01 03:14:54;;;;;;;2.13;1.05;;;;;;;7.08;79.30;102066.78;4900746;29;20033;-84
2022/05/01 03:17:20;;;;;;;2.50;1.17;;;;;;;7.01;79.71;102061.16;4900493;29;20089;-84
2022/05/01 03:22:30;;;;;;;3.03;1.20;;;;;;;6.97;80.00;102061.59;4896617;29;20044;-84
2022/05/01 03:24:57;;;;;;;3.45;1.30;;;;;;;6.93;79.75;102061.06;4886148;29;20020;-84
2022/05/01 03:27:22;;;;;;;1.70;1.13;;;;;;;6.92;80.10;102063.84;4901003;29;20060;-84
2022/05/01 03:30:15;;;;;;;1.92;1.00;;;;;;;6.86;80.55;102062.63;4899978;29;20020;-83
2022/05/01 03:32:33;;;;;;;;;;;;;;;6.78;80.55;102060.63;4901582;29;20120;-84
2022/05/01 03:37:34;;;;;;;1.65;1.05;;;;;;;4.97;80.85;101769.25;4978401;23;20065;-84
2022/05/01 03:40:00;;;;;;;1.83;0.90;;;;;;;5.68;80.97;101890.91;4866033;29;20032;-84
2022/05/01 03:42:26;;;;;;;1.30;0.88;;;;;;;6.08;80.90;101954.91;4881655;29;20029;-83
2022/05/01 03:44:51;;;;;;;2.85;1.05;;;;;;;6.79;80.93;102058.84;4882910;29;20037;-83
2022/05/01 03:47:17;;;;;;;1.83;1.05;;;;;;;5.24;80.83;101808.59;4885393;29;20113;-84
2022/05/01 03:49:43;;;;;;;4.80;1.10;;;;;;;5.75;80.71;101884.03;4885986;29;20029;-84
2022/05/01 03:52:09;;;;;;;2.75;1.08;;;;;;;6.10;80.58;101955.63;4885848;29;20052;-84
2022/05/01 03:54:35;;;;;;;3.25;1.20;;;;;;;6.98;80.99;102061.44;4885754;29;20025;-84
2022/05/01 03:57:01;;;;;;;3.28;1.00;;;;;;;7.03;80.58;102064.53;4872641;29;20070;-84
2022/05/01 03:59:27;;;;;;;2.67;1.10;;;;;;;7.00;80.46;102048.78;4867503;29;20022;-83
2022/05/01 04:01:52;;;;;;;3.35;1.38;;;;;;;7.17;80.54;102073.94;4883058;29;20025;-83
2022/05/01 04:04:19;;;;;;;3.35;1.50;;;;;;;7.22;80.37;102077.03;4869874;29;20044;-84
2022/05/01 04:06:44;;;;;;;3.13;1.40;;;;;;;7.18;79.73;102056.88;4885294;29;20064;-84
2022/05/01 04:09:12;;;;;;;3.38;1.33;;;;;;;7.25;79.39;102057.13;4882306;29;20029;-83
2022/05/01 04:11:37;;;;;;;2.72;1.48;;;;;;;7.33;79.49;102056.44;4880236;29;20049;-83
2022/05/01 04:14:03;;;;;;;2.80;1.20;;;;;;;7.51;79.27;102063.50;4882984;29;20052;-83
2022/05/01 04:16:28;;;;;;;2.40;1.38;;;;;;;7.68;78.55;102075.28;4883313;29;20030;-83
2022/05/01 04:18:54;;;;;;;2.60;1.42;;;;;;;7.82;78.26;102079.31;4881673;29;20090;-82
2022/05/01 04:21:19;;;;;;;3.58;1.80;;;;;;;8.33;76.24;102037.59;4882017;29;20029;-82
2022/05/01 04:23:44;;;;;;;4.07;1.50;;;;;;;8.72;74.67;102074.00;4881943;29;20054;-83
2022/05/01 04:26:10;;;;;;;3.55;1.38;;;;;;;8.56;75.00;102077.41;4867372;29;20051;-83
2022/05/01 04:28:35;;;;;;;2.55;1.30;;;;;;;8.51;76.09;102068.94;4882335;29;20026;-84
2022/05/01 04:31:01;;;;;;;2.33;1.55;;;;;;;8.50;76.06;102073.47;4866786;29;20037;-84
2022/05/01 04:33:26;;;;;;;3.22;1.58;;;;;;;8.56;75.96;102082.75;4881383;29;20093;-83
2022/05/01 04:35:52;;;;;;;4.15;1.70;;;;;;;8.55;76.24;102075.72;4881447;29;20046;-83
2022/05/01 04:38:25;;;;;;;2.20;1.20;;;;;;;8.60;76.36;102070.72;4882658;29;20041;-83
2022/05/01 04:40:53;;;;;;;4.78;1.30;;;;;;;8.79;75.62;102080.44;4881046;29;20033;-83
2022/05/01 04:43:21;;;;;;;5.15;1.27;;;;;;;8.84;75.40;102070.06;4881439;29;20134;-83
2022/05/01 04:45:51;;;;;;;4.22;1.35;;;;;;;9.05;74.24;102070.56;4875615;29;20169;-82
2022/05/01 04:48:18;;;;;;;2.97;1.33;;;;;;;9.71;71.24;102042.16;4862376;29;20034;-83
2022/05/01 04:50:45;;;;;;;7.00;1.40;;;;;;;10.11;70.16;102048.66;4861255;29;20445;-83
2022/05/01 04:53:12;;;;;;;2.35;1.20;;;;;;;10.08;70.58;102078.56;4870439;29;20065;-83
2022/05/01 04:55:39;;;;;;;3.63;1.20;;;;;;;9.98;71.33;102088.63;4878720;29;20128;-82
2022/05/01 04:58:05;;;;;;;3.28;1.80;;;;;;;9.71;71.49;102079.78;4879671;29;20043;-82
2022/05/01 05:00:31;;;;;;;5.82;1.60;;;;;;;9.50;71.62;102082.88;4877455;29;20041;-82
2022/05/01 05:02:57;;;;;;;5.22;1.70;;;;;;;9.61;72.05;102089.84;4866194;29;20030;-83
2022/05/01 05:05:23;;;;;;;3.03;1.23;;;;;;;9.74;71.52;102087.53;4885158;29;20040;-82
2022/05/01 05:07:49;;;;;;;3.83;1.40;;;;;;;10.02;71.26;102096.19;4876644;29;20074;-82
2022/05/01 05:10:16;;;;;;;2.47;1.30;;;;;;;9.97;71.57;102093.16;4861751;29;20042;-83
2022/05/01 05:12:44;;;;;;;2.47;1.30;;;;;;;9.83;71.36;102083.00;4876671;29;20033;-82
2022/05/01 05:15:12;;;;;;;3.65;1.42;;;;;;;9.84;71.06;102085.56;4878762;29;20116;-82
2022/05/01 05:17:38;;;;;;;1.95;1.00;;;;;;;10.00;70.60;102089.28;4862230;29;20141;-83
2022/05/01 05:20:05;;;;;;;2.20;1.00;;;;;;;10.08;70.28;102089.31;4877381;29;20069;-82
2022/05/01 05:22:31;;;;;;;1.55;0.98;;;;;;;10.01;69.94;102091.81;4877914;29;20472;-84
2022/05/01 05:24:59;;;;;;;2.15;1.10;;;;;;;10.02;69.73;102096.19;4882317;29;20029;-84
2022/05/01 05:27:27;;;;;;;1.90;1.02;;;;;;;10.01;69.66;102107.94;4883498;29;20041;-83
2022/05/01 05:29:54;;;;;;;1.45;1.13;;;;;;;10.07;68.98;102104.63;4881142;29;20187;-82
2022/05/01 05:32:20;;;;;;;2.33;1.40;;;;;;;10.09;69.13;102099.91;4880883;29;20033;-83
2022/05/01 05:34:45;;;;;;;2.40;1.20;;;;;;;10.02;68.22;102109.63;4882921;29;20010;-83
2022/05/01 05:37:10;;;;;;;3.70;1.08;;;;;;;9.96;68.30;102075.31;4870251;29;20136;-83
2022/05/01 05:39:36;;;;;;;1.88;0.90;;;;;;;10.06;67.88;102105.59;4880726;29;20029;-83
2022/05/01 05:42:01;;;;;;;2.38;1.00;;;;;;;9.97;67.45;102106.59;4867021;29;20021;-85
2022/05/01 05:44:27;;;;;;;2.92;1.00;;;;;;;9.92;66.24;102106.22;4884194;29;20038;-83
2022/05/01 05:46:52;;;;;;;2.35;1.13;;;;;;;8.41;66.11;101851.78;5098276;23;20061;-84
2022/05/01 05:51:53;;;;;;;1.52;0.95;;;;;;;9.20;65.24;101981.34;5275129;23;20069;-85
2022/05/01 05:56:54;;;;;;;4.00;1.10;;;;;;;10.03;64.17;102091.63;5169258;23;20053;-85
2022/05/01 05:59:19;;;;;;;2.58;1.00;;;;;;;10.27;64.29;102117.81;4862314;29;20102;-83
2022/05/01 06:01:44;;;;;;;2.33;0.93;;;;;;;10.17;64.30;102111.72;4857921;29;20033;-81
2022/05/01 06:04:10;;;;;;;1.92;0.90;;;;;;;10.07;64.17;102106.47;4843552;29;20041;-81
2022/05/01 06:06:35;;;;;;;1.60;0.90;;;;;;;10.41;64.58;102119.00;4866072;29;20565;-83
2022/05/01 06:09:01;;;;;;;1.90;0.98;;;;;;;10.47;64.37;102118.34;4867050;29;20033;-83
2022/05/01 06:11:28;;;;;;;2.35;0.90;;;;;;;9.25;64.04;101903.81;5025121;24;20065;-83
2022/05/01 06:13:55;;;;;;;2.70;0.80;;;;;;;8.92;63.66;101841.97;4862054;29;20014;-83
2022/05/01 06:16:20;;;;;;;2.33;1.00;;;;;;;9.63;62.77;101953.44;4860593;29;20064;-84
2022/05/01 06:18:46;;;;;;;1.38;1.02;;;;;;;9.58;63.29;101932.44;4852423;29;20025;-83
2022/05/01 06:21:12;;;;;;;2.58;0.82;;;;;;;10.98;62.43;102136.03;4842826;29;20034;-82
2022/05/01 06:23:38;;;;;;;2.80;0.90;;;;;;;11.01;62.63;102130.28;4837738;29;20027;-81
2022/05/01 06:26:05;;;;;;;2.90;0.65;;;;;;;10.89;61.65;102098.47;4838053;29;20529;-82
2022/05/01 06:28:31;;;;;;;1.70;0.93;;;;;;;11.20;61.46;102123.72;4862681;29;20030;-83
2022/05/01 06:30:58;;;;;;;2.05;1.00;;;;;;;11.33;61.16;102111.56;4849902;29;20038;-83
2022/05/01 06:33:24;;;;;;;1.42;0.88;;;;;;;11.19;60.34;102113.09;4852051;29;20045;-83
2022/05/01 06:35:53;;;;;;;2.00;0.80;;;;;;;11.30;60.08;102115.44;4836871;29;20030;-82
2022/05/01 06:38:18;;;;;;;2.47;0.80;;;;;;;11.27;59.83;102091.53;4845895;29;20037;-84
2022/05/01 06:40:44;;;;;;;3.33;0.90;;;;;;;11.48;59.75;102099.88;4862435;29;20038;-82
2022/05/01 06:58:41;;;;;;;3.25;0.80;;;;;;;13.35;53.44;102074.50;5783524;23;21024;-83
2022/05/01 07:01:07;;;;;;;3.15;1.20;;;;;;;13.69;51.57;102113.66;4866969;29;20101;-78
2022/05/01 07:37:13;;;;;;;4.68;1.05;;;;;;;12.37;46.64;101870.22;5024159;23;20400;-83
2022/05/01 07:39:39;;;;;;;2.08;0.50;;;;;;;12.62;46.22;101887.84;4899672;29;20013;-85
2022/05/01 07:42:05;;;;;;;2.25;0.60;;;;;;;14.38;45.76;102103.22;4901939;29;20033;-85
2022/05/01 07:47:06;;;;;;;1.38;0.70;;;;;;;13.48;43.73;101958.41;5514133;23;20083;-85
2022/05/01 08:15:23;;;;;;;1.33;0.52;;;;;;;16.02;38.68;102122.78;5809585;23;20076;-85
2022/05/01 08:59:16;;;;;;;1.60;0.40;;;;;;;15.49;33.88;102024.84;5239746;23;20061;-85
2022/05/01 09:32:44;;;;;;;4.13;0.50;;;;;;;16.08;34.09;102094.81;5237673;23;20058;-84
2022/05/01 09:35:17;;;;;;;0.93;0.50;;;;;;;14.51;34.11;101921.91;4884115;29;20033;-82
2022/05/01 09:37:44;;;;;;;0.80;0.47;;;;;;;16.12;35.87;102116.97;4889518;29;20026;-84
2022/05/01 09:40:10;;;;;;;0.82;0.60;;;;;;;16.33;36.33;102114.13;4886323;29;20033;-84
2022/05/01 09:42:36;;;;;;;1.63;0.60;;;;;;;16.51;36.65;102109.97;4888362;29;20037;-83
2022/05/01 09:45:07;;;;;;;1.33;0.57;;;;;;;16.39;36.12;102058.13;4887638;29;20021;-84
2022/05/01 09:47:43;;;;;;;1.10;0.50;;;;;;;16.67;35.85;102107.69;4882997;29;20046;-83
2022/05/01 09:50:10;;;;;;;2.05;0.50;;;;;;;16.66;36.67;102107.91;4878763;29;20017;-83
2022/05/01 09:52:56;;;;;;;0.90;0.50;;;;;;;16.28;38.91;102116.59;4882340;29;20052;-82
2022/05/01 09:55:23;;;;;;;2.72;0.73;;;;;;;16.12;40.02;102097.97;4890479;29;20021;-83
2022/05/01 09:57:48;;;;;;;1.48;0.70;;;;;;;16.00;41.81;102107.75;4882529;29;20021;-83
2022/05/01 10:00:14;;;;;;;1.80;0.70;;;;;;;15.80;42.18;102075.94;4850872;29;20025;-83
2022/05/01 10:02:39;;;;;;;3.60;0.70;;;;;;;16.05;42.26;102100.66;4882764;29;20089;-83
2022/05/01 10:05:08;;;;;;;2.67;0.90;;;;;;;16.03;42.02;102101.94;4882595;29;20061;-82
2022/05/01 10:07:37;;;;;;;1.02;0.60;;;;;;;16.03;42.09;102107.34;4875898;29;20030;-82
2022/05/01 10:10:07;;;;;;;1.45;0.70;;;;;;;15.89;42.90;102112.75;4879900;29;20036;-81
2022/05/01 10:12:43;;;;;;;2.88;0.60;;;;;;;16.05;43.45;102114.25;4883069;29;20036;-80
2022/05/01 10:15:10;;;;;;;3.35;0.63;;;;;;;15.86;43.74;102082.41;4884102;29;20032;-82
2022/05/01 10:17:38;;;;;;;0.68;0.55;;;;;;;15.87;43.45;102087.66;4877132;29;20037;-81
2022/05/01 10:20:03;;;;;;;2.15;0.57;;;;;;;16.13;43.97;102113.25;4880696;29;20029;-81
2022/05/01 10:22:31;;;;;;;1.83;0.73;;;;;;;16.11;43.96;102101.72;4885552;29;20032;-82
2022/05/01 10:24:57;;;;;;;1.40;0.60;;;;;;;16.10;44.78;102109.03;4877624;29;20021;-82
2022/05/01 10:27:55;;;;;;;1.92;0.52;;;;;;;16.22;44.22;102112.00;4882703;29;20041;-82
2022/05/01 10:33:31;;;;;;;3.10;0.80;;;;;;;15.76;47.58;102095.53;4893067;29;20070;-83
2022/05/01 10:36:23;;;;;;;3.08;0.70;;;;;;;16.13;45.28;102095.06;4900250;29;20013;-81
2022/05/01 10:39:09;;;;;;;2.83;0.75;;;;;;;16.47;43.42;102084.25;4909055;29;20033;-83
2022/05/01 10:41:39;;;;;;;2.00;0.70;;;;;;;16.30;44.76;102073.78;4906951;29;20480;-79
2022/05/01 10:44:04;;;;;;;1.40;0.70;;;;;;;16.33;44.70;102086.97;4892543;29;20463;-83
2022/05/01 10:46:32;;;;;;;0.93;0.60;;;;;;;16.56;45.41;102102.06;4894567;29;20089;-81
2022/05/01 10:49:05;;;;;;;1.35;0.60;;;;;;;16.64;44.36;102094.50;4889614;29;20064;-80
2022/05/01 10:51:30;;;;;;;1.90;0.60;;;;;;;16.57;44.77;102096.41;4895346;29;20044;-82
2022/05/01 10:54:14;;;;;;;0.70;0.60;;;;;;;17.20;42.78;102100.59;4899665;29;20033;-81
2022/05/01 10:56:41;;;;;;;1.90;0.70;;;;;;;17.38;41.08;102095.31;4913204;29;20028;-77
2022/05/01 10:59:33;;;;;;;2.45;0.70;;;;;;;16.44;45.43;102090.94;4898278;29;20049;-84
2022/05/01 11:44:20;;;;;;;4.95;1.85;;;;;;;18.59;37.48;102093.75;4709199;23;20023;31
2022/05/01 11:53:02;;;;;;;2.15;0.65;;;;;;;18.41;37.14;102004.53;5996167;23;20737;31
2022/05/01 12:03:30;;;;;;;3.90;0.60;;;;;;;18.98;36.37;102063.44;4847962;29;20041;-78
2022/05/01 12:05:56;;;;;;;2.10;0.80;;;;;;;19.23;36.34;102082.47;4847969;29;20405;-78
2022/05/01 12:08:22;;;;;;;2.33;0.88;;;;;;;19.31;36.50;102081.38;4862071;29;20392;-78
2022/05/01 12:10:47;;;;;;;1.55;0.75;;;;;;;19.23;35.27;102063.38;4867120;29;20059;-79
2022/05/01 12:13:27;;;;;;;1.10;0.65;;;;;;;19.37;35.26;102076.88;4850383;29;20037;-77
2022/05/01 12:15:53;;;;;;;4.97;0.70;;;;;;;19.54;34.42;102071.69;4847861;29;20017;-78
2022/05/01 12:18:20;;;;;;;1.13;0.75;;;;;;;19.61;34.74;102078.72;4848735;29;20034;-78
2022/05/01 12:20:46;;;;;;;2.20;0.70;;;;;;;19.71;34.20;102073.59;4847819;29;20116;-77
2022/05/01 12:23:19;;;;;;;1.35;0.80;;;;;;;19.66;34.97;102064.41;4864939;29;20211;-79
2022/05/01 12:25:49;;;;;;;2.35;0.75;;;;;;;19.62;34.91;102077.66;4865576;29;20265;-78
2022/05/01 12:28:18;;;;;;;1.95;0.70;;;;;;;19.65;33.88;102084.59;4866263;29;20033;-78
2022/05/01 12:30:45;;;;;;;1.90;0.73;;;;;;;19.61;34.57;102080.63;4832994;29;20669;-78
2022/05/01 12:33:24;;;;;;;3.05;0.90;;;;;;;19.30;33.22;102081.59;4863746;29;20038;-78
2022/05/01 12:35:59;;;;;;;3.03;1.00;;;;;;;19.29;33.79;102094.41;4864631;29;20025;-78
2022/05/01 12:38:28;;;;;;;1.77;0.80;;;;;;;19.64;34.88;102089.22;4863823;29;20413;-78
2022/05/01 12:43:50;;;;;;;3.13;0.90;;;;;;;19.71;34.57;102089.97;4864528;29;20100;-78
2022/05/01 12:46:24;;;;;;;2.70;0.90;;;;;;;19.79;33.94;102077.91;4850246;29;20029;-80
2022/05/01 12:48:50;;;;;;;1.30;0.90;;;;;;;19.42;33.50;102077.06;4865313;29;20071;-79
2022/05/01 12:51:16;;;;;;;2.40;0.90;;;;;;;19.55;33.63;102078.81;4847342;29;20731;-79
2022/05/01 12:53:42;;;;;;;2.47;0.80;;;;;;;19.10;34.72;102063.53;4849656;29;20108;-78
2022/05/01 12:56:22;;;;;;;1.67;1.00;;;;;;;18.62;36.58;102080.50;4856838;29;20017;-79
2022/05/01 12:58:50;;;;;;;3.08;1.00;;;;;;;18.30;38.09;102061.44;4891206;29;20684;-81
2022/05/01 13:01:27;;;;;;;3.13;0.95;;;;;;;18.08;38.87;102069.13;4867755;29;20137;-79
2022/05/01 13:03:54;;;;;;;1.33;0.82;;;;;;;17.71;39.91;102067.16;4887556;29;20029;-81
2022/05/01 13:06:22;;;;;;;3.80;0.98;;;;;;;17.30;41.08;102069.19;4882844;29;20029;-79
2022/05/01 13:09:09;;;;;;;3.83;1.10;;;;;;;17.08;40.57;102065.88;4849764;29;20116;-77
2022/05/01 13:11:36;;;;;;;2.72;0.90;;;;;;;17.11;39.98;102065.44;4884150;29;20034;-79
2022/05/01 13:14:05;;;;;;;4.22;0.85;;;;;;;17.20;39.36;102057.91;4865161;29;20120;-79
2022/05/01 13:16:30;;;;;;;3.15;0.80;;;;;;;17.25;39.06;102068.16;4862713;29;20044;-79
2022/05/01 13:19:14;;;;;;;1.45;0.80;;;;;;;17.15;38.95;102041.38;4861435;29;20025;-80
2022/05/01 13:21:43;;;;;;;1.87;1.03;;;;;;;17.06;38.86;102016.31;4882067;29;20025;-80
2022/05/01 13:24:23;;;;;;;10.40;1.75;;;;;;;17.63;38.32;102067.41;4881246;29;20041;-78
2022/05/01 13:26:49;;;;;;;3.53;0.90;;;;;;;17.65;37.54;102068.88;4873798;29;20099;-79
2022/05/01 13:29:16;;;;;;;2.50;1.00;;;;;;;17.53;37.17;102065.16;4862142;29;20040;-79
2022/05/01 13:31:43;;;;;;;3.00;0.90;;;;;;;17.72;37.71;102064.25;4881343;29;20104;-79
2022/05/01 13:34:09;;;;;;;1.85;0.70;;;;;;;17.70;36.42;102055.44;4881829;29;20037;-79
2022/05/01 13:36:37;;;;;;;0.95;0.68;;;;;;;17.54;35.82;102080.44;4895198;29;20033;-79
2022/05/01 13:39:04;;;;;;;1.27;0.75;;;;;;;17.60;35.36;102082.28;4854311;29;20089;-79
2022/05/01 13:46:54;;;;;;;2.47;0.65;;;;;;;17.59;36.84;102076.03;4876740;29;20033;-79
2022/05/01 13:49:21;;;;;;;1.10;0.52;;;;;;;17.36;35.59;102070.22;4864470;29;20037;-79
2022/05/01 13:51:47;;;;;;;2.67;0.80;;;;;;;17.25;36.16;102063.56;4854361;29;20124;-79
2022/05/01 13:54:12;;;;;;;1.50;0.70;;;;;;;17.27;35.29;102055.19;4882232;29;20045;-79
2022/05/01 13:56:38;;;;;;;1.23;0.60;;;;;;;17.16;36.10;102064.00;4862836;29;20141;-79
2022/05/01 13:59:04;;;;;;;1.13;0.60;;;;;;;16.91;36.62;102051.06;4863575;29;20044;-79
2022/05/01 14:01:31;;;;;;;1.40;0.77;;;;;;;17.08;37.06;102065.03;4861161;29;20051;-80
2022/05/01 14:03:58;;;;;;;1.77;0.80;;;;;;;17.00;37.36;102040.81;4862010;29;20105;-79
2022/05/01 14:06:25;;;;;;;1.38;0.65;;;;;;;17.19;37.68;102048.09;4862621;29;20025;-80
2022/05/01 14:08:51;;;;;;;1.65;0.90;;;;;;;17.21;38.40;102051.41;4846400;29;20166;-79
2022/05/01 14:11:16;;;;;;;1.48;0.80;;;;;;;17.31;38.48;102051.81;4861220;29;20026;-80
2022/05/01 14:13:42;;;;;;;2.15;0.82;;;;;;;17.34;38.65;102045.09;4865545;29;20124;-80
2022/05/01 14:16:07;;;;;;;1.42;0.90;;;;;;;17.24;38.08;102037.41;4864529;29;20048;-79
2022/05/01 14:18:38;;;;;;;1.48;0.80;;;;;;;17.21;38.60;102061.47;4864272;29;20037;-79
2022/05/01 14:21:05;;;;;;;1.10;0.70;;;;;;;17.13;37.94;102036.16;4864755;29;20120;-80
2022/05/01 14:23:33;;;;;;;2.13;0.93;;;;;;;16.90;39.59;102047.50;4862090;29;20022;-80
2022/05/01 14:25:59;;;;;;;2.50;0.75;;;;;;;16.93;39.15;102056.28;4861897;29;20026;-80
2022/05/01 14:28:25;;;;;;;0.98;0.60;;;;;;;16.41;38.93;101997.09;4870473;29;20094;-81
2022/05/01 14:31:19;;;;;;;2.53;0.90;;;;;;;16.80;38.41;102048.97;4870914;29;20041;-82
2022/05/01 14:34:15;;;;;;;1.10;0.50;;;;;;;16.30;39.45;102057.50;4867298;29;20435;-81
2022/05/01 14:36:47;;;;;;;3.53;0.70;;;;;;;16.35;37.82;102051.44;4874624;29;20053;-82
2022/05/01 14:39:15;;;;;;;1.73;0.70;;;;;;;16.27;37.14;102044.31;4863547;29;20371;-81
2022/05/01 14:41:49;;;;;;;1.33;0.73;;;;;;;16.40;36.88;102048.94;4869841;29;20014;-81
2022/05/01 14:44:21;;;;;;;2.15;0.80;;;;;;;16.47;36.61;102067.97;4874256;29;20334;-81
2022/05/01 14:46:58;;;;;;;1.63;0.90;;;;;;;16.36;39.19;102064.81;4866910;29;20040;-79
2022/05/01 14:49:48;;;;;;;3.53;0.80;;;;;;;16.04;42.06;102060.16;4861085;29;20068;-79
2022/05/01 14:52:14;;;;;;;1.17;0.80;;;;;;;15.68;42.80;102020.56;4861737;29;20030;-79
2022/05/01 14:54:42;;;;;;;3.65;0.77;;;;;;;15.87;42.23;102044.22;4860654;29;20101;-80
2022/05/01 14:57:12;;;;;;;2.33;0.90;;;;;;;15.83;41.20;102050.28;4853669;29;20492;-80
2022/05/01 15:08:16;;;;;;;5.13;1.00;;;;;;;16.27;39.73;102046.22;4861889;29;20073;-79
2022/05/01 15:10:44;;;;;;;1.45;0.70;;;;;;;16.31;39.28;102051.00;4841596;29;20058;-78
2022/05/01 15:13:14;;;;;;;1.55;0.57;;;;;;;16.43;37.48;102054.78;4854308;29;20044;-79
2022/05/01 15:15:42;;;;;;;1.92;0.70;;;;;;;16.62;38.10;102046.84;4851349;29;20458;-79
2022/05/01 15:18:09;;;;;;;1.08;0.60;;;;;;;16.49;38.48;102041.41;4861101;29;20416;-79
2022/05/01 15:20:36;;;;;;;7.05;0.60;;;;;;;16.68;37.39;102043.28;4844968;29;20025;-79
2022/05/01 15:23:18;;;;;;;2.55;0.63;;;;;;;16.40;35.82;102002.75;4861313;29;20367;-79
2022/05/01 15:25:50;;;;;;;0.90;0.60;;;;;;;16.74;35.80;102037.03;4866462;29;20029;-79
2022/05/01 15:28:19;;;;;;;1.55;0.52;;;;;;;16.79;35.58;102042.72;4847023;29;20055;-77
2022/05/01 15:30:50;;;;;;;2.80;0.80;;;;;;;17.01;34.81;102045.19;4850442;29;20433;-80
2022/05/01 15:36:15;;;;;;;1.48;0.60;;;;;;;17.03;34.82;102030.34;4863263;29;20026;-80
2022/05/01 15:38:54;;;;;;;1.95;0.60;;;;;;;17.18;34.05;102040.97;4861662;29;20341;-79
2022/05/01 15:41:41;;;;;;;2.05;0.80;;;;;;;17.36;33.91;102043.84;4857306;29;20037;-78
2022/05/01 15:44:12;;;;;;;1.38;0.63;;;;;;;17.28;33.39;102022.31;4861019;29;20034;-80
2022/05/01 15:46:55;;;;;;;1.10;0.60;;;;;;;17.42;32.55;102020.41;4871829;29;20045;-80
2022/05/01 15:54:55;;;;;;;1.83;0.40;;;;;;;17.45;32.29;102016.41;4880103;29;20020;-83
2022/05/01 15:57:23;;;;;;;1.48;0.60;;;;;;;17.61;32.68;102007.75;4881864;29;20093;-81
2022/05/01 15:59:49;;;;;;;0.80;0.50;;;;;;;17.66;32.80;102013.38;4861213;29;20064;-83
2022/05/01 16:02:18;;;;;;;0.80;0.50;;;;;;;17.47;32.81;102011.59;4880708;29;20042;-82
2022/05/01 16:04:43;;;;;;;2.30;0.70;;;;;;;17.58;33.32;102024.50;4866256;29;20034;-83
2022/05/01 16:07:17;;;;;;;2.22;0.80;;;;;;;17.43;33.49;102010.34;4879735;29;20040;-84